sensor_id;sensor_type;location;lat;lon;timestamp;pressure;altitude;pressure_sealevel;temperature;humidity
13124;BME280;6627;50.920;12.050;2023-02-27T00:00:31;98116.31;;;8.61;40.22
13124;BME280;6627;50.920;12.050;2023-02-27T00:02:58;97838.13;;;7.18;42.29
13124;BME280;6627;50.920;12.050;2023-02-27T00:05:26;98012.69;;;7.71;42.24
13124;BME280;6627;50.920;12.050;2023-02-27T00:07:54;98115.53;;;8.33;41.13
13124;BME280;6627;50.920;12.050;2023-02-27T00:10:22;98066.59;;;8.12;41.29
13124;BME280;6627;50.920;12.050;2023-02-27T00:12:49;97935.44;;;7.52;41.93
13124;BME280;6627;50.920;12.050;2023-02-27T00:15:19;97926.09;;;7.50;41.55
13124;BME280;6627;50.920;12.050;2023-02-27T00:17:46;98082.78;;;7.98;42.13
13124;BME280;6627;50.920;12.050;2023-02-27T00:20:16;98050.22;;;7.67;42.80
13124;BME280;6627;50.920;12.050;2023-02-27T00:22:45;97943.63;;;7.33;42.09
13124;BME280;6627;50.920;12.050;2023-02-27T00:25:13;98107.63;;;7.95;41.86
13124;BME280;6627;50.920;12.050;2023-02-27T00:27:42;98173.25;;;8.18;41.94
13124;BME280;6627;50.920;12.050;2023-02-27T00:30:12;98108.44;;;7.96;41.92
13124;BME280;6627;50.920;12.050;2023-02-27T00:32:41;97936.34;;;7.20;42.49
13124;BME280;6627;50.920;12.050;2023-02-27T00:35:10;98246.59;;;8.20;42.82
13124;BME280;6627;50.920;12.050;2023-02-27T00:37:39;98316.25;;;8.51;42.26
13124;BME280;6627;50.920;12.050;2023-02-27T00:40:08;98290.44;;;8.58;41.27
13124;BME280;6627;50.920;12.050;2023-02-27T00:42:35;98228.97;;;8.42;41.03
13124;BME280;6627;50.920;12.050;2023-02-27T00:45:06;98237.25;;;8.45;40.97
13124;BME280;6627;50.920;12.050;2023-02-27T00:47:34;98311.06;;;8.68;41.26
13124;BME280;6627;50.920;12.050;2023-02-27T00:50:02;98353.28;;;9.05;39.97
13124;BME280;6627;50.920;12.050;2023-02-27T00:52:29;98406.69;;;9.50;39.22
13124;BME280;6627;50.920;12.050;2023-02-27T00:54:58;98076.78;;;8.15;39.92
13124;BME280;6627;50.920;12.050;2023-02-27T00:57:27;97966.56;;;7.72;40.11
13124;BME280;6627;50.920;12.050;2023-02-27T00:59:54;97989.63;;;7.51;41.64
13124;BME280;6627;50.920;12.050;2023-02-27T01:02:23;98173.38;;;8.41;40.27
13124;BME280;6627;50.920;12.050;2023-02-27T01:04:50;98360.34;;;9.29;39.37
13124;BME280;6627;50.920;12.050;2023-02-27T01:07:17;98069.09;;;8.08;40.09
13124;BME280;6627;50.920;12.050;2023-02-27T01:09:44;97905.44;;;7.31;40.63
13124;BME280;6627;50.920;12.050;2023-02-27T01:12:11;98175.28;;;8.40;40.13
13124;BME280;6627;50.920;12.050;2023-02-27T01:14:39;98256.38;;;8.90;39.21
13124;BME280;6627;50.920;12.050;2023-02-27T01:17:06;98155.09;;;8.24;40.43
13124;BME280;6627;50.920;12.050;2023-02-27T01:19:34;97934.88;;;7.28;41.29
13124;BME280;6627;50.920;12.050;2023-02-27T01:22:01;98104.72;;;7.92;41.11
13124;BME280;6627;50.920;12.050;2023-02-27T01:24:30;98144.91;;;8.34;40.25
13124;BME280;6627;50.920;12.050;2023-02-27T01:26:57;98145.81;;;8.16;40.76
13124;BME280;6627;50.920;12.050;2023-02-27T01:29:24;98241.38;;;8.70;39.84
13124;BME280;6627;50.920;12.050;2023-02-27T01:31:52;98272.66;;;8.85;39.54
13124;BME280;6627;50.920;12.050;2023-02-27T01:34:19;98212.47;;;8.71;39.44
13124;BME280;6627;50.920;12.050;2023-02-27T01:36:48;98343.25;;;9.06;39.99
13124;BME280;6627;50.920;12.050;2023-02-27T01:39:15;98431.31;;;9.62;38.83
13124;BME280;6627;50.920;12.050;2023-02-27T01:41:43;98303.63;;;9.15;38.90
13124;BME280;6627;50.920;12.050;2023-02-27T01:44:13;98202.00;;;8.55;40.12
13124;BME280;6627;50.920;12.050;2023-02-27T01:46:41;98253.47;;;8.87;39.50
13124;BME280;6627;50.920;12.050;2023-02-27T01:49:14;98207.88;;;8.44;40.66
13124;BME280;6627;50.920;12.050;2023-02-27T01:51:46;98297.84;;;8.80;40.50
13124;BME280;6627;50.920;12.050;2023-02-27T01:54:20;98379.38;;;9.38;39.21
13124;BME280;6627;50.920;12.050;2023-02-27T01:56:49;97831.75;;;7.00;41.56
13124;BME280;6627;50.920;12.050;2023-02-27T01:59:18;98126.72;;;8.13;41.00
13124;BME280;6627;50.920;12.050;2023-02-27T02:01:46;98103.25;;;8.13;40.33
13124;BME280;6627;50.920;12.050;2023-02-27T02:04:22;97990.72;;;7.22;42.84
13124;BME280;6627;50.920;12.050;2023-02-27T02:06:59;97978.16;;;7.31;41.54
13124;BME280;6627;50.920;12.050;2023-02-27T02:09:29;98188.28;;;8.24;40.84
13124;BME280;6627;50.920;12.050;2023-02-27T02:11:58;98298.47;;;8.77;40.33
13124;BME280;6627;50.920;12.050;2023-02-27T02:14:26;98127.91;;;7.93;41.20
13124;BME280;6627;50.920;12.050;2023-02-27T02:17:12;98101.25;;;7.91;40.38
13124;BME280;6627;50.920;12.050;2023-02-27T02:23:14;98167.88;;;8.18;40.14
13124;BME280;6627;50.920;12.050;2023-02-27T02:26:18;97845.00;;;6.69;41.85
13124;BME280;6627;50.920;12.050;2023-02-27T02:29:21;98136.91;;;7.88;40.78
13124;BME280;6627;50.920;12.050;2023-02-27T02:32:29;98319.22;;;8.63;40.24
13124;BME280;6627;50.920;12.050;2023-02-27T02:35:53;97718.41;;;6.05;42.34
13124;BME280;6627;50.920;12.050;2023-02-27T02:38:57;98110.78;;;7.23;43.21
13124;BME280;6627;50.920;12.050;2023-02-27T02:41:44;98265.81;;;8.00;42.17
13124;BME280;6627;50.920;12.050;2023-02-27T02:44:25;98355.03;;;8.55;41.00
13124;BME280;6627;50.920;12.050;2023-02-27T02:47:03;98203.41;;;7.93;41.36
13124;BME280;6627;50.920;12.050;2023-02-27T02:49:41;98420.69;;;8.97;40.07
13124;BME280;6627;50.920;12.050;2023-02-27T02:52:18;98398.50;;;9.00;39.71
13124;BME280;6627;50.920;12.050;2023-02-27T02:54:57;98301.44;;;8.62;39.86
13124;BME280;6627;50.920;12.050;2023-02-27T02:57:36;98204.56;;;8.19;40.15
13124;BME280;6627;50.920;12.050;2023-02-27T03:00:10;98043.19;;;7.39;41.49
13124;BME280;6627;50.920;12.050;2023-02-27T03:02:48;98246.69;;;8.15;41.03
13124;BME280;6627;50.920;12.050;2023-02-27T03:05:23;98354.41;;;8.58;41.01
13124;BME280;6627;50.920;12.050;2023-02-27T03:07:57;98452.53;;;9.27;39.65
13124;BME280;6627;50.920;12.050;2023-02-27T03:10:34;98299.94;;;8.70;39.56
13124;BME280;6627;50.920;12.050;2023-02-27T03:13:11;98333.03;;;8.75;39.94
13124;BME280;6627;50.920;12.050;2023-02-27T03:15:48;98394.25;;;8.94;39.94
13124;BME280;6627;50.920;12.050;2023-02-27T03:18:21;98262.47;;;8.54;39.97
13124;BME280;6627;50.920;12.050;2023-02-27T03:20:56;98321.56;;;8.83;39.51
13124;BME280;6627;50.920;12.050;2023-02-27T03:23:32;98228.84;;;8.33;40.19
13124;BME280;6627;50.920;12.050;2023-02-27T03:26:03;97987.72;;;7.24;41.94
13124;BME280;6627;50.920;12.050;2023-02-27T03:28:38;98196.28;;;7.83;41.77
13124;BME280;6627;50.920;12.050;2023-02-27T03:31:12;98009.28;;;7.38;41.35
13124;BME280;6627;50.920;12.050;2023-02-27T03:33:48;98399.19;;;8.92;40.16
13124;BME280;6627;50.920;12.050;2023-02-27T03:36:25;98569.13;;;9.67;39.45
13124;BME280;6627;50.920;12.050;2023-02-27T03:39:01;98121.31;;;7.85;40.73
13124;BME280;6627;50.920;12.050;2023-02-27T03:41:37;98330.81;;;8.50;41.08
13124;BME280;6627;50.920;12.050;2023-02-27T03:44:13;98403.66;;;8.82;40.78
13124;BME280;6627;50.920;12.050;2023-02-27T03:46:49;98391.44;;;8.71;41.08
13124;BME280;6627;50.920;12.050;2023-02-27T03:49:16;98331.56;;;8.69;40.04
13124;BME280;6627;50.920;12.050;2023-02-27T03:51:44;98457.72;;;9.10;40.52
13124;BME280;6627;50.920;12.050;2023-02-27T03:54:15;98401.50;;;9.12;39.58
13124;BME280;6627;50.920;12.050;2023-02-27T03:56:50;98528.75;;;9.57;39.66
13124;BME280;6627;50.920;12.050;2023-02-27T03:59:18;98609.81;;;10.03;38.98
13124;BME280;6627;50.920;12.050;2023-02-27T04:01:46;98628.28;;;10.29;38.10
13124;BME280;6627;50.920;12.050;2023-02-27T04:04:16;98404.28;;;9.21;39.15
13124;BME280;6627;50.920;12.050;2023-02-27T04:06:49;98349.25;;;9.03;39.21
13124;BME280;6627;50.920;12.050;2023-02-27T04:10:14;98093.72;;;7.74;41.11
13124;BME280;6627;50.920;12.050;2023-02-27T04:13:24;98441.03;;;9.08;40.62
13124;BME280;6627;50.920;12.050;2023-02-27T04:16:13;98402.06;;;8.81;41.45
13124;BME280;6627;50.920;12.050;2023-02-27T04:19:00;98565.50;;;9.58;40.42
13124;BME280;6627;50.920;12.050;2023-02-27T04:21:42;98609.59;;;9.86;39.30
13124;BME280;6627;50.920;12.050;2023-02-27T04:24:28;98544.69;;;9.72;39.25
13124;BME280;6627;50.920;12.050;2023-02-27T04:27:07;98678.00;;;10.47;38.22
13124;BME280;6627;50.920;12.050;2023-02-27T04:29:52;98666.19;;;10.43;38.00
13124;BME280;6627;50.920;12.050;2023-02-27T04:32:29;98576.13;;;9.82;39.36
13124;BME280;6627;50.920;12.050;2023-02-27T04:35:05;98479.47;;;9.60;38.94
13124;BME280;6627;50.920;12.050;2023-02-27T04:37:46;98361.06;;;9.07;39.58
13124;BME280;6627;50.920;12.050;2023-02-27T04:40:18;98188.06;;;8.21;40.75
13124;BME280;6627;50.920;12.050;2023-02-27T04:42:50;98494.19;;;9.40;40.17
13124;BME280;6627;50.920;12.050;2023-02-27T04:45:25;98439.34;;;9.26;39.71
13124;BME280;6627;50.920;12.050;2023-02-27T04:48:00;98537.56;;;9.76;39.05
13124;BME280;6627;50.920;12.050;2023-02-27T04:50:35;98441.31;;;9.20;40.41
13124;BME280;6627;50.920;12.050;2023-02-27T04:53:08;98408.88;;;9.06;40.30
13124;BME280;6627;50.920;12.050;2023-02-27T04:55:44;98465.56;;;9.25;40.45
13124;BME280;6627;50.920;12.050;2023-02-27T04:58:18;98490.69;;;9.40;40.46
13124;BME280;6627;50.920;12.050;2023-02-27T05:00:53;98442.53;;;9.14;40.53
13124;BME280;6627;50.920;12.050;2023-02-27T05:03:27;98602.78;;;9.89;39.64
13124;BME280;6627;50.920;12.050;2023-02-27T05:05:59;98777.50;;;10.69;39.21
13124;BME280;6627;50.920;12.050;2023-02-27T05:08:34;98650.13;;;10.32;38.52
13124;BME280;6627;50.920;12.050;2023-02-27T05:11:12;98599.97;;;9.94;38.99
13124;BME280;6627;50.920;12.050;2023-02-27T05:13:48;98732.97;;;10.61;38.41
13124;BME280;6627;50.920;12.050;2023-02-27T05:16:27;98549.69;;;9.79;39.22
13124;BME280;6627;50.920;12.050;2023-02-27T05:18:59;98578.34;;;9.94;38.90
13124;BME280;6627;50.920;12.050;2023-02-27T05:21:34;98709.69;;;10.60;38.11
13124;BME280;6627;50.920;12.050;2023-02-27T05:24:13;98638.66;;;10.08;38.90
13124;BME280;6627;50.920;12.050;2023-02-27T05:27:05;98647.41;;;10.19;38.64
13124;BME280;6627;50.920;12.050;2023-02-27T05:29:45;98416.63;;;9.27;39.32
13124;BME280;6627;50.920;12.050;2023-02-27T05:32:26;98467.44;;;9.25;40.41
13124;BME280;6627;50.920;12.050;2023-02-27T05:35:04;98409.09;;;9.10;40.18
13124;BME280;6627;50.920;12.050;2023-02-27T05:37:43;98654.56;;;9.96;40.39
13124;BME280;6627;50.920;12.050;2023-02-27T05:40:18;98662.84;;;10.18;39.36
13124;BME280;6627;50.920;12.050;2023-02-27T05:42:58;98444.13;;;9.29;39.78
13124;BME280;6627;50.920;12.050;2023-02-27T05:45:29;98572.50;;;9.73;39.73
13124;BME280;6627;50.920;12.050;2023-02-27T05:48:06;98365.44;;;8.75;40.71
13124;BME280;6627;50.920;12.050;2023-02-27T05:50:37;98451.81;;;9.08;40.31
13124;BME280;6627;50.920;12.050;2023-02-27T05:53:09;98777.75;;;10.40;40.21
13124;BME280;6627;50.920;12.050;2023-02-27T05:55:40;98669.13;;;10.14;39.19
13124;BME280;6627;50.920;12.050;2023-02-27T05:58:16;98582.75;;;9.90;39.20
13124;BME280;6627;50.920;12.050;2023-02-27T06:00:50;98560.78;;;9.50;40.18
13124;BME280;6627;50.920;12.050;2023-02-27T06:03:21;98703.63;;;10.22;39.69
13124;BME280;6627;50.920;12.050;2023-02-27T06:05:51;98623.31;;;9.90;39.53
13124;BME280;6627;50.920;12.050;2023-02-27T06:08:20;98618.00;;;9.84;40.29
13124;BME280;6627;50.920;12.050;2023-02-27T06:10:47;98826.97;;;10.74;39.60
13124;BME280;6627;50.920;12.050;2023-02-27T06:13:16;98676.78;;;10.25;39.11
13124;BME280;6627;50.920;12.050;2023-02-27T06:15:43;98766.66;;;10.55;39.01
13124;BME280;6627;50.920;12.050;2023-02-27T06:18:12;98750.72;;;10.67;38.57
13124;BME280;6627;50.920;12.050;2023-02-27T06:20:42;98815.94;;;10.98;38.04
13124;BME280;6627;50.920;12.050;2023-02-27T06:23:10;98755.63;;;10.65;38.45
13124;BME280;6627;50.920;12.050;2023-02-27T06:25:38;98627.47;;;10.01;39.25
13124;BME280;6627;50.920;12.050;2023-02-27T06:28:08;98850.34;;;10.98;39.05
13124;BME280;6627;50.920;12.050;2023-02-27T06:30:35;98591.44;;;9.59;41.05
13124;BME280;6627;50.920;12.050;2023-02-27T06:33:03;98471.53;;;9.08;40.93
13124;BME280;6627;50.920;12.050;2023-02-27T06:35:30;98388.06;;;8.79;41.10
13124;BME280;6627;50.920;12.050;2023-02-27T06:37:59;98728.81;;;9.90;41.57
13124;BME280;6627;50.920;12.050;2023-02-27T06:40:26;98537.44;;;9.40;40.78
13124;BME280;6627;50.920;12.050;2023-02-27T06:42:53;98824.91;;;10.52;40.56
13124;BME280;6627;50.920;12.050;2023-02-27T06:45:20;98740.88;;;10.44;39.79
13124;BME280;6627;50.920;12.050;2023-02-27T06:47:49;98505.00;;;9.26;40.89
13124;BME280;6627;50.920;12.050;2023-02-27T06:50:16;98580.66;;;9.26;42.00
13124;BME280;6627;50.920;12.050;2023-02-27T06:52:43;98620.19;;;9.69;40.78
13124;BME280;6627;50.920;12.050;2023-02-27T06:55:12;98824.44;;;10.64;39.82
13124;BME280;6627;50.920;12.050;2023-02-27T06:57:45;98695.22;;;10.09;40.02
13124;BME280;6627;50.920;12.050;2023-02-27T07:00:15;98777.72;;;10.58;39.41
13124;BME280;6627;50.920;12.050;2023-02-27T07:02:43;98715.88;;;10.19;39.72
13124;BME280;6627;50.920;12.050;2023-02-27T07:05:10;98749.63;;;10.41;39.52
13124;BME280;6627;50.920;12.050;2023-02-27T07:07:38;98475.63;;;9.06;40.59
13124;BME280;6627;50.920;12.050;2023-02-27T07:10:08;98627.78;;;9.53;41.08
13124;BME280;6627;50.920;12.050;2023-02-27T07:12:38;98420.47;;;8.47;42.48
13124;BME280;6627;50.920;12.050;2023-02-27T07:15:06;98860.09;;;10.39;41.10
13124;BME280;6627;50.920;12.050;2023-02-27T07:17:34;98963.72;;;11.23;39.37
13124;BME280;6627;50.920;12.050;2023-02-27T07:20:02;98975.31;;;11.43;38.95
13124;BME280;6627;50.920;12.050;2023-02-27T07:22:29;98722.22;;;10.56;38.67
13124;BME280;6627;50.920;12.050;2023-02-27T07:24:56;98702.25;;;10.24;39.63
13124;BME280;6627;50.920;12.050;2023-02-27T07:27:23;98704.28;;;10.32;39.16
13124;BME280;6627;50.920;12.050;2023-02-27T07:29:52;98906.56;;;11.06;38.95
13124;BME280;6627;50.920;12.050;2023-02-27T07:32:20;98897.38;;;11.21;38.46
13124;BME280;6627;50.920;12.050;2023-02-27T07:34:47;98873.44;;;11.09;38.30
13124;BME280;6627;50.920;12.050;2023-02-27T07:37:14;98435.22;;;9.42;38.98
13124;BME280;6627;50.920;12.050;2023-02-27T07:39:41;98560.41;;;9.56;40.11
13124;BME280;6627;50.920;12.050;2023-02-27T07:42:10;98903.56;;;10.94;39.29
13124;BME280;6627;50.920;12.050;2023-02-27T07:44:37;98982.13;;;11.54;38.44
13124;BME280;6627;50.920;12.050;2023-02-27T07:47:06;98853.00;;;11.03;38.47
13124;BME280;6627;50.920;12.050;2023-02-27T07:49:34;99061.34;;;11.83;38.20
13124;BME280;6627;50.920;12.050;2023-02-27T07:52:01;98776.00;;;10.63;39.04
13124;BME280;6627;50.920;12.050;2023-02-27T07:54:28;99061.56;;;12.01;37.58
13124;BME280;6627;50.920;12.050;2023-02-27T07:56:55;99013.28;;;11.70;38.08
13124;BME280;6627;50.920;12.050;2023-02-27T07:59:23;98495.31;;;9.80;38.78
13124;BME280;6627;50.920;12.050;2023-02-27T08:01:51;98926.66;;;11.46;38.12
13124;BME280;6627;50.920;12.050;2023-02-27T08:04:20;99001.41;;;11.80;37.93
13124;BME280;6627;50.920;12.050;2023-02-27T08:06:47;98972.28;;;11.85;37.23
13124;BME280;6627;50.920;12.050;2023-02-27T08:09:14;98451.94;;;9.58;38.86
13124;BME280;6627;50.920;12.050;2023-02-27T08:11:41;98766.06;;;10.85;38.27
13124;BME280;6627;50.920;12.050;2023-02-27T08:14:09;98938.22;;;11.66;37.45
13124;BME280;6627;50.920;12.050;2023-02-27T08:16:36;99240.97;;;13.01;36.97
13124;BME280;6627;50.920;12.050;2023-02-27T08:19:03;98769.28;;;10.88;38.43
13124;BME280;6627;50.920;12.050;2023-02-27T08:21:31;99006.81;;;12.21;36.41
13124;BME280;6627;50.920;12.050;2023-02-27T08:23:59;99125.41;;;12.40;38.07
13124;BME280;6627;50.920;12.050;2023-02-27T08:26:26;99332.19;;;13.62;36.27
13124;BME280;6627;50.920;12.050;2023-02-27T08:28:53;99406.66;;;14.16;35.54
13124;BME280;6627;50.920;12.050;2023-02-27T08:31:20;98786.75;;;11.81;35.79
13124;BME280;6627;50.920;12.050;2023-02-27T08:33:48;98941.44;;;12.31;35.74
13124;BME280;6627;50.920;12.050;2023-02-27T08:36:15;98995.53;;;12.64;35.37
13124;BME280;6627;50.920;12.050;2023-02-27T08:38:44;99224.44;;;13.61;34.86
13124;BME280;6627;50.920;12.050;2023-02-27T08:41:11;99153.59;;;13.52;34.52
13124;BME280;6627;50.920;12.050;2023-02-27T08:43:38;98741.50;;;11.91;35.52
13124;BME280;6627;50.920;12.050;2023-02-27T08:46:05;98946.03;;;12.45;36.39
13124;BME280;6627;50.920;12.050;2023-02-27T08:48:33;99224.97;;;13.94;34.69
13124;BME280;6627;50.920;12.050;2023-02-27T08:51:00;98838.66;;;12.25;35.85
13124;BME280;6627;50.920;12.050;2023-02-27T08:53:27;98800.25;;;11.86;36.23
13124;BME280;6627;50.920;12.050;2023-02-27T08:55:56;98739.75;;;11.72;36.08
13124;BME280;6627;50.920;12.050;2023-02-27T08:58:23;99264.78;;;13.81;35.59
13124;BME280;6627;50.920;12.050;2023-02-27T09:00:50;98899.09;;;12.53;35.22
13124;BME280;6627;50.920;12.050;2023-02-27T09:03:17;98763.56;;;11.75;36.46
13124;BME280;6627;50.920;12.050;2023-02-27T09:05:47;98863.75;;;12.08;36.31
13124;BME280;6627;50.920;12.050;2023-02-27T09:08:14;98929.47;;;12.55;34.92
13124;BME280;6627;50.920;12.050;2023-02-27T09:10:42;98652.81;;;11.32;36.16
13124;BME280;6627;50.920;12.050;2023-02-27T09:13:10;99090.22;;;13.07;35.78
13124;BME280;6627;50.920;12.050;2023-02-27T09:15:38;98848.47;;;12.34;35.05
13124;BME280;6627;50.920;12.050;2023-02-27T09:18:05;98891.56;;;12.27;35.62
13124;BME280;6627;50.920;12.050;2023-02-27T09:20:34;98680.34;;;11.84;34.32
13124;BME280;6627;50.920;12.050;2023-02-27T09:23:02;98738.75;;;11.68;35.65
13124;BME280;6627;50.920;12.050;2023-02-27T09:25:29;98849.97;;;12.18;35.55
13124;BME280;6627;50.920;12.050;2023-02-27T09:27:57;98994.31;;;12.93;34.54
13124;BME280;6627;50.920;12.050;2023-02-27T09:30:26;99046.94;;;13.19;34.63
13124;BME280;6627;50.920;12.050;2023-02-27T09:32:53;98892.28;;;12.64;34.50
13124;BME280;6627;50.920;12.050;2023-02-27T09:35:20;98681.00;;;11.90;34.30
13124;BME280;6627;50.920;12.050;2023-02-27T09:37:48;98874.47;;;12.80;33.37
13124;BME280;6627;50.920;12.050;2023-02-27T09:40:21;99070.56;;;13.55;33.40
13124;BME280;6627;50.920;12.050;2023-02-27T09:42:52;99026.13;;;13.37;33.37
13124;BME280;6627;50.920;12.050;2023-02-27T09:45:26;98788.28;;;12.41;34.27
13124;BME280;6627;50.920;12.050;2023-02-27T09:47:59;98744.28;;;12.30;33.45
13124;BME280;6627;50.920;12.050;2023-02-27T09:50:37;98613.78;;;11.33;35.71
13124;BME280;6627;50.920;12.050;2023-02-27T09:53:12;98678.91;;;11.65;34.94
13124;BME280;6627;50.920;12.050;2023-02-27T09:55:43;98736.06;;;11.91;34.69
13124;BME280;6627;50.920;12.050;2023-02-27T09:58:29;98437.03;;;10.69;35.56
13124;BME280;6627;50.920;12.050;2023-02-27T10:01:08;99193.22;;;13.89;33.84
13124;BME280;6627;50.920;12.050;2023-02-27T10:04:05;99267.69;;;14.38;33.36
13124;BME280;6627;50.920;12.050;2023-02-27T10:06:41;98698.63;;;12.32;33.52
13124;BME280;6627;50.920;12.050;2023-02-27T10:09:29;98421.16;;;10.76;35.37
13124;BME280;6627;50.920;12.050;2023-02-27T10:12:16;98847.25;;;12.18;35.63
13124;BME280;6627;50.920;12.050;2023-02-27T10:14:49;98790.97;;;12.10;35.50
13124;BME280;6627;50.920;12.050;2023-02-27T10:17:25;98817.13;;;12.28;35.06
13124;BME280;6627;50.920;12.050;2023-02-27T10:19:55;98893.66;;;12.30;36.09
13124;BME280;6627;50.920;12.050;2023-02-27T10:22:27;99101.09;;;13.52;34.06
13124;BME280;6627;50.920;12.050;2023-02-27T10:25:02;99017.94;;;13.14;34.25
13124;BME280;6627;50.920;12.050;2023-02-27T10:27:31;99225.03;;;13.80;35.20
13124;BME280;6627;50.920;12.050;2023-02-27T10:30:21;99291.25;;;14.34;33.99
13124;BME280;6627;50.920;12.050;2023-02-27T10:32:54;99195.44;;;14.10;33.55
13124;BME280;6627;50.920;12.050;2023-02-27T10:35:31;98883.25;;;12.77;34.42
13124;BME280;6627;50.920;12.050;2023-02-27T10:38:03;99151.81;;;13.48;35.93
13124;BME280;6627;50.920;12.050;2023-02-27T10:40:35;99050.22;;;13.07;35.77
13124;BME280;6627;50.920;12.050;2023-02-27T10:43:04;99035.47;;;13.22;34.88
13124;BME280;6627;50.920;12.050;2023-02-27T10:45:32;98625.34;;;11.48;35.83
13124;BME280;6627;50.920;12.050;2023-02-27T10:48:03;98901.56;;;12.41;36.19
13124;BME280;6627;50.920;12.050;2023-02-27T10:50:35;99214.53;;;13.87;34.83
13124;BME280;6627;50.920;12.050;2023-02-27T10:53:15;99258.97;;;14.28;34.11
13124;BME280;6627;50.920;12.050;2023-02-27T10:55:47;99012.88;;;13.44;34.08
13124;BME280;6627;50.920;12.050;2023-02-27T10:58:23;98727.97;;;11.99;35.53
13124;BME280;6627;50.920;12.050;2023-02-27T11:00:55;99064.06;;;12.97;37.09
13124;BME280;6627;50.920;12.050;2023-02-27T11:03:27;98962.69;;;12.74;36.37
13124;BME280;6627;50.920;12.050;2023-02-27T11:05:58;98685.75;;;11.40;37.43
13124;BME280;6627;50.920;12.050;2023-02-27T11:08:28;99135.28;;;13.22;36.62
13124;BME280;6627;50.920;12.050;2023-02-27T11:11:00;99559.81;;;15.75;33.95
13124;BME280;6627;50.920;12.050;2023-02-27T11:13:30;98922.59;;;12.80;35.69
13124;BME280;6627;50.920;12.050;2023-02-27T11:16:07;99302.56;;;14.28;35.71
13124;BME280;6627;50.920;12.050;2023-02-27T11:18:38;99153.38;;;13.94;34.75
13124;BME280;6627;50.920;12.050;2023-02-27T11:21:24;99011.59;;;13.42;34.90
13124;BME280;6627;50.920;12.050;2023-02-27T11:23:57;99136.56;;;13.92;34.67
13124;BME280;6627;50.920;12.050;2023-02-27T11:26:31;98986.84;;;12.98;36.13
13124;BME280;6627;50.920;12.050;2023-02-27T11:29:14;99360.38;;;14.70;35.10
13124;BME280;6627;50.920;12.050;2023-02-27T11:31:51;99153.31;;;14.16;34.57
13124;BME280;6627;50.920;12.050;2023-02-27T11:34:25;99452.06;;;15.42;33.96
13124;BME280;6627;50.920;12.050;2023-02-27T11:36:57;98988.56;;;13.48;34.46
13124;BME280;6627;50.920;12.050;2023-02-27T11:39:33;99137.38;;;14.01;34.54
13124;BME280;6627;50.920;12.050;2023-02-27T11:42:13;99078.03;;;13.80;34.41
13124;BME280;6627;50.920;12.050;2023-02-27T11:44:53;99169.78;;;14.11;34.59
13124;BME280;6627;50.920;12.050;2023-02-27T11:47:27;99169.19;;;14.14;34.37
13124;BME280;6627;50.920;12.050;2023-02-27T11:50:30;99042.56;;;13.63;34.78
13124;BME280;6627;50.920;12.050;2023-02-27T11:53:28;99244.09;;;14.65;34.08
13124;BME280;6627;50.920;12.050;2023-02-27T11:56:04;99021.63;;;13.72;34.40
13124;BME280;6627;50.920;12.050;2023-02-27T11:58:39;98937.31;;;13.41;34.57
13124;BME280;6627;50.920;12.050;2023-02-27T12:01:20;99077.44;;;13.92;34.79
13124;BME280;6627;50.920;12.050;2023-02-27T12:03:55;99442.72;;;15.82;33.15
13124;BME280;6627;50.920;12.050;2023-02-27T12:06:34;99015.47;;;13.98;33.97
13124;BME280;6627;50.920;12.050;2023-02-27T12:09:16;99203.34;;;14.60;34.11
13124;BME280;6627;50.920;12.050;2023-02-27T12:11:48;99357.91;;;15.30;33.67
13124;BME280;6627;50.920;12.050;2023-02-27T12:14:22;99123.00;;;14.49;33.82
13124;BME280;6627;50.920;12.050;2023-02-27T12:16:56;99391.66;;;15.34;34.39
13124;BME280;6627;50.920;12.050;2023-02-27T12:19:34;99334.72;;;15.59;32.90
13124;BME280;6627;50.920;12.050;2023-02-27T12:22:18;99271.88;;;15.24;33.52
13124;BME280;6627;50.920;12.050;2023-02-27T12:24:52;98928.75;;;13.65;34.45
13124;BME280;6627;50.920;12.050;2023-02-27T12:27:25;99062.97;;;14.23;34.71
13124;BME280;6627;50.920;12.050;2023-02-27T12:30:01;98873.66;;;13.11;36.01
13124;BME280;6627;50.920;12.050;2023-02-27T12:32:41;98752.41;;;12.61;35.66
13124;BME280;6627;50.920;12.050;2023-02-27T12:35:16;99046.88;;;13.55;36.46
13124;BME280;6627;50.920;12.050;2023-02-27T12:37:47;98848.03;;;13.03;35.39
13124;BME280;6627;50.920;12.050;2023-02-27T12:40:16;99105.69;;;14.05;35.82
13124;BME280;6627;50.920;12.050;2023-02-27T12:43:11;99192.13;;;14.53;34.85
13124;BME280;6627;50.920;12.050;2023-02-27T12:46:23;98751.28;;;12.23;37.36
13124;BME280;6627;50.920;12.050;2023-02-27T12:49:15;99040.59;;;13.46;36.76
13124;BME280;6627;50.920;12.050;2023-02-27T12:51:59;99165.59;;;14.05;36.29
13124;BME280;6627;50.920;12.050;2023-02-27T12:54:39;99027.03;;;13.24;37.16
13124;BME280;6627;50.920;12.050;2023-02-27T12:57:27;99125.44;;;13.79;36.80
13124;BME280;6627;50.920;12.050;2023-02-27T13:00:11;98987.09;;;13.19;36.88
13124;BME280;6627;50.920;12.050;2023-02-27T13:03:01;98831.81;;;12.50;37.28
13124;BME280;6627;50.920;12.050;2023-02-27T13:05:40;99293.16;;;14.65;35.65
13124;BME280;6627;50.920;12.050;2023-02-27T13:08:51;99120.97;;;13.83;36.14
13124;BME280;6627;50.920;12.050;2023-02-27T13:11:33;99378.78;;;15.26;34.58
13124;BME280;6627;50.920;12.050;2023-02-27T13:14:12;98899.03;;;12.98;36.41
13124;BME280;6627;50.920;12.050;2023-02-27T13:16:49;98900.91;;;12.88;36.96
13124;BME280;6627;50.920;12.050;2023-02-27T13:19:28;98940.03;;;13.10;36.37
13124;BME280;6627;50.920;12.050;2023-02-27T13:22:08;98957.69;;;13.21;36.45
13124;BME280;6627;50.920;12.050;2023-02-27T13:24:47;99073.16;;;13.60;36.75
13124;BME280;6627;50.920;12.050;2023-02-27T13:27:22;98960.44;;;12.99;36.77
13124;BME280;6627;50.920;12.050;2023-02-27T13:30:06;98934.50;;;12.93;37.41
13124;BME280;6627;50.920;12.050;2023-02-27T13:32:43;99128.44;;;13.47;38.29
13124;BME280;6627;50.920;12.050;2023-02-27T13:35:21;99060.25;;;13.21;38.24
13124;BME280;6627;50.920;12.050;2023-02-27T13:37:52;99033.03;;;13.21;37.66
13124;BME280;6627;50.920;12.050;2023-02-27T13:40:33;98783.31;;;11.90;38.74
13124;BME280;6627;50.920;12.050;2023-02-27T13:43:27;99199.13;;;13.83;36.86